sensor_id;sensor_type;location;lat;lon;timestamp;temperature;humidity
10868;DHT22;62667;48.698;8.762;2022-10-16T00:01:05;14.60;99.90
10868;DHT22;62667;48.698;8.762;2022-10-16T00:03:33;14.50;99.90
10868;DHT22;62667;48.698;8.762;2022-10-16T00:06:01;14.50;99.90
10868;DHT22;62667;48.698;8.762;2022-10-16T00:08:28;14.50;99.90
10868;DHT22;62667;48.698;8.762;2022-10-16T00:11:01;14.50;99.90
10868;DHT22;62667;48.698;8.762;2022-10-16T00:13:29;14.40;99.90
10868;DHT22;62667;48.698;8.762;2022-10-16T00:15:58;14.40;99.90
10868;DHT22;62667;48.698;8.762;2022-10-16T00:18:28;14.40;99.90
10868;DHT22;62667;48.698;8.762;2022-10-16T00:21:02;14.40;99.90
10868;DHT22;62667;48.698;8.762;2022-10-16T00:23:29;14.40;99.90
10868;DHT22;62667;48.698;8.762;2022-10-16T00:25:56;14.40;99.90
10868;DHT22;62667;48.698;8.762;2022-10-16T00:28:24;14.30;99.90
10868;DHT22;62667;48.698;8.762;2022-10-16T00:30:51;14.30;99.90
10868;DHT22;62667;48.698;8.762;2022-10-16T00:33:18;14.30;99.90
10868;DHT22;62667;48.698;8.762;2022-10-16T00:35:44;14.30;99.90
10868;DHT22;62667;48.698;8.762;2022-10-16T00:38:12;14.30;99.90
10868;DHT22;62667;48.698;8.762;2022-10-16T00:40:38;14.30;99.90
10868;DHT22;62667;48.698;8.762;2022-10-16T00:43:12;14.40;99.90
10868;DHT22;62667;48.698;8.762;2022-10-16T00:45:39;14.40;99.90
10868;DHT22;62667;48.698;8.762;2022-10-16T00:48:10;14.40;99.90
10868;DHT22;62667;48.698;8.762;2022-10-16T00:50:39;14.50;99.90
10868;DHT22;62667;48.698;8.762;2022-10-16T00:53:09;14.60;99.90
10868;DHT22;62667;48.698;8.762;2022-10-16T00:55:37;14.50;99.90
10868;DHT22;62667;48.698;8.762;2022-10-16T00:58:04;14.50;99.90
10868;DHT22;62667;48.698;8.762;2022-10-16T01:00:30;14.50;99.90
10868;DHT22;62667;48.698;8.762;2022-10-16T01:02:59;14.50;99.90
10868;DHT22;62667;48.698;8.762;2022-10-16T01:05:32;14.40;99.90
10868;DHT22;62667;48.698;8.762;2022-10-16T01:08:08;14.40;99.90
10868;DHT22;62667;48.698;8.762;2022-10-16T01:10:44;14.40;99.90
10868;DHT22;62667;48.698;8.762;2022-10-16T01:13:20;14.50;99.90
10868;DHT22;62667;48.698;8.762;2022-10-16T01:15:54;14.50;99.90
10868;DHT22;62667;48.698;8.762;2022-10-16T01:18:30;14.50;99.90
10868;DHT22;62667;48.698;8.762;2022-10-16T01:21:06;14.40;99.90
10868;DHT22;62667;48.698;8.762;2022-10-16T01:23:42;14.30;99.90
10868;DHT22;62667;48.698;8.762;2022-10-16T01:26:30;14.30;99.90
10868;DHT22;62667;48.698;8.762;2022-10-16T01:29:08;14.30;99.90
10868;DHT22;62667;48.698;8.762;2022-10-16T01:31:44;14.30;99.90
10868;DHT22;62667;48.698;8.762;2022-10-16T01:34:15;14.30;99.90
10868;DHT22;62667;48.698;8.762;2022-10-16T01:36:49;14.40;99.90
10868;DHT22;62667;48.698;8.762;2022-10-16T01:39:22;14.40;99.90
10868;DHT22;62667;48.698;8.762;2022-10-16T01:41:58;14.40;99.90
10868;DHT22;62667;48.698;8.762;2022-10-16T01:44:32;14.40;99.90
10868;DHT22;62667;48.698;8.762;2022-10-16T01:47:04;14.40;99.90
10868;DHT22;62667;48.698;8.762;2022-10-16T01:49:37;14.40;99.90
10868;DHT22;62667;48.698;8.762;2022-10-16T01:52:07;14.40;99.90
10868;DHT22;62667;48.698;8.762;2022-10-16T01:54:42;14.40;99.90
10868;DHT22;62667;48.698;8.762;2022-10-16T01:57:13;14.40;99.90
10868;DHT22;62667;48.698;8.762;2022-10-16T01:59:44;14.40;99.90
10868;DHT22;62667;48.698;8.762;2022-10-16T02:02:14;14.30;99.90
10868;DHT22;62667;48.698;8.762;2022-10-16T02:04:44;14.30;99.90
10868;DHT22;62667;48.698;8.762;2022-10-16T02:07:13;14.30;99.90
10868;DHT22;62667;48.698;8.762;2022-10-16T02:09:40;14.20;99.90
10868;DHT22;62667;48.698;8.762;2022-10-16T02:12:11;14.20;99.90
10868;DHT22;62667;48.698;8.762;2022-10-16T02:14:42;14.20;99.90
10868;DHT22;62667;48.698;8.762;2022-10-16T02:17:13;14.20;99.90
10868;DHT22;62667;48.698;8.762;2022-10-16T02:19:42;14.20;99.90
10868;DHT22;62667;48.698;8.762;2022-10-16T02:22:14;14.30;99.90
10868;DHT22;62667;48.698;8.762;2022-10-16T02:24:50;14.30;99.90
10868;DHT22;62667;48.698;8.762;2022-10-16T02:27:24;14.30;99.90
10868;DHT22;62667;48.698;8.762;2022-10-16T02:29:59;14.40;99.90
10868;DHT22;62667;48.698;8.762;2022-10-16T02:32:34;14.40;99.90
10868;DHT22;62667;48.698;8.762;2022-10-16T02:35:04;14.40;99.90
10868;DHT22;62667;48.698;8.762;2022-10-16T02:37:32;14.40;99.90
10868;DHT22;62667;48.698;8.762;2022-10-16T02:39:59;14.40;99.90
10868;DHT22;62667;48.698;8.762;2022-10-16T02:42:29;14.30;99.90
10868;DHT22;62667;48.698;8.762;2022-10-16T02:45:00;14.30;99.90
10868;DHT22;62667;48.698;8.762;2022-10-16T02:47:26;14.30;99.90
10868;DHT22;62667;48.698;8.762;2022-10-16T02:49:53;14.30;99.90
10868;DHT22;62667;48.698;8.762;2022-10-16T02:52:19;14.30;99.90
10868;DHT22;62667;48.698;8.762;2022-10-16T02:54:46;14.20;99.90
10868;DHT22;62667;48.698;8.762;2022-10-16T02:57:12;14.20;99.90
10868;DHT22;62667;48.698;8.762;2022-10-16T02:59:38;14.20;99.90
10868;DHT22;62667;48.698;8.762;2022-10-16T03:02:08;14.30;99.90
10868;DHT22;62667;48.698;8.762;2022-10-16T03:04:34;14.30;99.90
10868;DHT22;62667;48.698;8.762;2022-10-16T03:07:01;14.20;99.90
10868;DHT22;62667;48.698;8.762;2022-10-16T03:09:30;14.20;99.90
10868;DHT22;62667;48.698;8.762;2022-10-16T03:11:59;14.30;99.90
10868;DHT22;62667;48.698;8.762;2022-10-16T03:14:27;14.30;99.90
10868;DHT22;62667;48.698;8.762;2022-10-16T03:16:56;14.20;99.90
10868;DHT22;62667;48.698;8.762;2022-10-16T03:19:23;14.30;99.90
10868;DHT22;62667;48.698;8.762;2022-10-16T03:21:50;14.30;99.90
10868;DHT22;62667;48.698;8.762;2022-10-16T03:24:16;14.30;99.90
10868;DHT22;62667;48.698;8.762;2022-10-16T03:26:43;14.30;99.90
10868;DHT22;62667;48.698;8.762;2022-10-16T03:29:11;14.30;99.90
10868;DHT22;62667;48.698;8.762;2022-10-16T03:31:38;14.30;99.90
10868;DHT22;62667;48.698;8.762;2022-10-16T03:34:04;14.30;99.90
10868;DHT22;62667;48.698;8.762;2022-10-16T03:36:31;14.20;99.90
10868;DHT22;62667;48.698;8.762;2022-10-16T03:38:58;14.20;99.90
10868;DHT22;62667;48.698;8.762;2022-10-16T03:41:24;14.20;99.90
10868;DHT22;62667;48.698;8.762;2022-10-16T03:43:50;14.20;99.90
10868;DHT22;62667;48.698;8.762;2022-10-16T03:46:19;14.20;99.90
10868;DHT22;62667;48.698;8.762;2022-10-16T03:48:45;14.20;99.90
10868;DHT22;62667;48.698;8.762;2022-10-16T03:51:12;14.20;99.90
10868;DHT22;62667;48.698;8.762;2022-10-16T03:53:41;14.20;99.90
10868;DHT22;62667;48.698;8.762;2022-10-16T03:56:08;14.20;99.90
10868;DHT22;62667;48.698;8.762;2022-10-16T03:58:34;14.20;99.90
10868;DHT22;62667;48.698;8.762;2022-10-16T04:01:03;14.20;99.90
10868;DHT22;62667;48.698;8.762;2022-10-16T04:03:29;14.30;99.90
10868;DHT22;62667;48.698;8.762;2022-10-16T04:05:56;14.30;99.90
10868;DHT22;62667;48.698;8.762;2022-10-16T04:08:22;14.40;99.90
10868;DHT22;62667;48.698;8.762;2022-10-16T04:10:49;14.40;99.90
10868;DHT22;62667;48.698;8.762;2022-10-16T04:13:16;14.40;99.90
10868;DHT22;62667;48.698;8.762;2022-10-16T04:15:44;14.50;99.90
10868;DHT22;62667;48.698;8.762;2022-10-16T04:18:12;14.40;99.90
10868;DHT22;62667;48.698;8.762;2022-10-16T04:20:39;14.50;99.90
10868;DHT22;62667;48.698;8.762;2022-10-16T04:23:05;14.50;99.90
10868;DHT22;62667;48.698;8.762;2022-10-16T04:25:32;14.50;99.90
10868;DHT22;62667;48.698;8.762;2022-10-16T04:27:59;14.60;99.90
10868;DHT22;62667;48.698;8.762;2022-10-16T04:30:27;14.40;99.90
10868;DHT22;62667;48.698;8.762;2022-10-16T04:32:54;14.30;99.90
10868;DHT22;62667;48.698;8.762;2022-10-16T04:35:21;14.30;99.90
10868;DHT22;62667;48.698;8.762;2022-10-16T04:37:48;14.30;99.90
10868;DHT22;62667;48.698;8.762;2022-10-16T04:40:14;14.30;99.90
10868;DHT22;62667;48.698;8.762;2022-10-16T04:42:41;14.40;99.90
10868;DHT22;62667;48.698;8.762;2022-10-16T04:45:09;14.30;99.90
10868;DHT22;62667;48.698;8.762;2022-10-16T04:47:35;14.30;99.90
10868;DHT22;62667;48.698;8.762;2022-10-16T04:50:02;14.40;99.90
10868;DHT22;62667;48.698;8.762;2022-10-16T04:52:32;14.40;99.90
10868;DHT22;62667;48.698;8.762;2022-10-16T04:54:58;14.40;99.90
10868;DHT22;62667;48.698;8.762;2022-10-16T04:57:28;14.30;99.90
10868;DHT22;62667;48.698;8.762;2022-10-16T04:59:55;14.30;99.90
10868;DHT22;62667;48.698;8.762;2022-10-16T05:02:22;14.30;99.90
10868;DHT22;62667;48.698;8.762;2022-10-16T05:04:48;14.30;99.90
10868;DHT22;62667;48.698;8.762;2022-10-16T05:07:15;14.20;99.90
10868;DHT22;62667;48.698;8.762;2022-10-16T05:09:41;14.20;99.90
10868;DHT22;62667;48.698;8.762;2022-10-16T05:12:10;14.10;99.90
10868;DHT22;62667;48.698;8.762;2022-10-16T05:14:36;14.10;99.90
10868;DHT22;62667;48.698;8.762;2022-10-16T05:17:03;14.10;99.90
10868;DHT22;62667;48.698;8.762;2022-10-16T05:19:32;14.10;99.90
10868;DHT22;62667;48.698;8.762;2022-10-16T05:21:59;14.10;99.90
10868;DHT22;62667;48.698;8.762;2022-10-16T05:24:26;14.10;99.90
10868;DHT22;62667;48.698;8.762;2022-10-16T05:26:52;14.20;99.90
10868;DHT22;62667;48.698;8.762;2022-10-16T05:29:19;14.10;99.90
10868;DHT22;62667;48.698;8.762;2022-10-16T05:31:46;14.10;99.90
10868;DHT22;62667;48.698;8.762;2022-10-16T05:34:12;14.10;99.90
10868;DHT22;62667;48.698;8.762;2022-10-16T05:36:39;14.10;99.90
10868;DHT22;62667;48.698;8.762;2022-10-16T05:39:06;14.10;99.90
10868;DHT22;62667;48.698;8.762;2022-10-16T05:41:33;14.10;99.90
10868;DHT22;62667;48.698;8.762;2022-10-16T05:44:00;14.10;99.90
10868;DHT22;62667;48.698;8.762;2022-10-16T05:46:26;14.20;99.90
10868;DHT22;62667;48.698;8.762;2022-10-16T05:48:55;14.10;99.90
10868;DHT22;62667;48.698;8.762;2022-10-16T05:51:21;14.10;99.90
10868;DHT22;62667;48.698;8.762;2022-10-16T05:53:52;14.00;99.90
10868;DHT22;62667;48.698;8.762;2022-10-16T05:56:18;13.90;99.90
10868;DHT22;62667;48.698;8.762;2022-10-16T05:58:45;13.90;99.90
10868;DHT22;62667;48.698;8.762;2022-10-16T06:01:13;13.90;99.90
10868;DHT22;62667;48.698;8.762;2022-10-16T06:03:41;13.80;99.90
10868;DHT22;62667;48.698;8.762;2022-10-16T06:06:08;13.80;99.90
10868;DHT22;62667;48.698;8.762;2022-10-16T06:08:36;13.90;99.90
10868;DHT22;62667;48.698;8.762;2022-10-16T06:11:04;13.90;99.90
10868;DHT22;62667;48.698;8.762;2022-10-16T06:13:32;13.90;99.90
10868;DHT22;62667;48.698;8.762;2022-10-16T06:16:00;13.90;99.90
10868;DHT22;62667;48.698;8.762;2022-10-16T06:18:27;13.90;99.90
10868;DHT22;62667;48.698;8.762;2022-10-16T06:20:55;14.00;99.90
10868;DHT22;62667;48.698;8.762;2022-10-16T06:23:22;14.00;99.90
10868;DHT22;62667;48.698;8.762;2022-10-16T06:25:50;14.10;99.90
10868;DHT22;62667;48.698;8.762;2022-10-16T06:28:17;14.10;99.90
10868;DHT22;62667;48.698;8.762;2022-10-16T06:30:43;14.20;99.90
10868;DHT22;62667;48.698;8.762;2022-10-16T06:33:10;14.10;99.90
10868;DHT22;62667;48.698;8.762;2022-10-16T06:35:36;14.20;99.90
10868;DHT22;62667;48.698;8.762;2022-10-16T06:38:02;14.30;99.90
10868;DHT22;62667;48.698;8.762;2022-10-16T06:40:29;14.30;99.90
10868;DHT22;62667;48.698;8.762;2022-10-16T06:42:58;14.40;99.90
10868;DHT22;62667;48.698;8.762;2022-10-16T06:45:25;14.40;99.90
10868;DHT22;62667;48.698;8.762;2022-10-16T06:47:51;14.40;99.90
10868;DHT22;62667;48.698;8.762;2022-10-16T06:50:17;14.50;99.90
10868;DHT22;62667;48.698;8.762;2022-10-16T06:52:44;14.50;99.90
10868;DHT22;62667;48.698;8.762;2022-10-16T06:55:10;14.50;99.90
10868;DHT22;62667;48.698;8.762;2022-10-16T06:57:37;14.60;99.90
10868;DHT22;62667;48.698;8.762;2022-10-16T07:00:04;14.60;99.90
10868;DHT22;62667;48.698;8.762;2022-10-16T07:02:32;14.70;99.90
10868;DHT22;62667;48.698;8.762;2022-10-16T07:04:59;14.70;99.90
10868;DHT22;62667;48.698;8.762;2022-10-16T07:07:25;14.60;99.90
10868;DHT22;62667;48.698;8.762;2022-10-16T07:09:54;14.60;99.90
10868;DHT22;62667;48.698;8.762;2022-10-16T07:12:21;14.60;99.90
10868;DHT22;62667;48.698;8.762;2022-10-16T07:14:47;14.50;99.90
10868;DHT22;62667;48.698;8.762;2022-10-16T07:17:13;14.70;99.90
10868;DHT22;62667;48.698;8.762;2022-10-16T07:19:41;14.80;99.90
10868;DHT22;62667;48.698;8.762;2022-10-16T07:22:09;14.70;99.90
10868;DHT22;62667;48.698;8.762;2022-10-16T07:24:36;14.80;99.90
10868;DHT22;62667;48.698;8.762;2022-10-16T07:27:02;14.90;99.90
10868;DHT22;62667;48.698;8.762;2022-10-16T07:29:29;15.00;99.90
10868;DHT22;62667;48.698;8.762;2022-10-16T07:31:55;15.10;99.90
10868;DHT22;62667;48.698;8.762;2022-10-16T07:34:24;15.20;99.90
10868;DHT22;62667;48.698;8.762;2022-10-16T07:36:54;15.20;99.30
10868;DHT22;62667;48.698;8.762;2022-10-16T07:39:21;15.30;98.80
10868;DHT22;62667;48.698;8.762;2022-10-16T07:41:47;15.40;98.60
10868;DHT22;62667;48.698;8.762;2022-10-16T07:44:16;15.40;98.80
10868;DHT22;62667;48.698;8.762;2022-10-16T07:46:42;15.50;98.60
10868;DHT22;62667;48.698;8.762;2022-10-16T07:49:09;15.60;97.50
10868;DHT22;62667;48.698;8.762;2022-10-16T07:51:35;15.70;97.10
10868;DHT22;62667;48.698;8.762;2022-10-16T07:54:04;15.80;96.20
10868;DHT22;62667;48.698;8.762;2022-10-16T08:01:27;16.30;99.90
10868;DHT22;62667;48.698;8.762;2022-10-16T08:03:55;16.30;95.70
10868;DHT22;62667;48.698;8.762;2022-10-16T08:08:49;16.40;93.40
10868;DHT22;62667;48.698;8.762;2022-10-16T08:11:16;16.40;92.00
10868;DHT22;62667;48.698;8.762;2022-10-16T08:13:43;16.50;92.70
10868;DHT22;62667;48.698;8.762;2022-10-16T08:16:09;16.30;94.30
10868;DHT22;62667;48.698;8.762;2022-10-16T08:18:37;16.20;95.00
10868;DHT22;62667;48.698;8.762;2022-10-16T08:21:05;16.20;93.70
10868;DHT22;62667;48.698;8.762;2022-10-16T08:23:32;16.30;94.00
10868;DHT22;62667;48.698;8.762;2022-10-16T08:26:03;16.30;93.50
10868;DHT22;62667;48.698;8.762;2022-10-16T08:28:32;16.40;92.20
10868;DHT22;62667;48.698;8.762;2022-10-16T08:31:05;16.40;92.20
10868;DHT22;62667;48.698;8.762;2022-10-16T08:33:33;16.40;93.00
10868;DHT22;62667;48.698;8.762;2022-10-16T08:36:01;16.30;93.90
10868;DHT22;62667;48.698;8.762;2022-10-16T08:38:28;16.30;94.40
10868;DHT22;62667;48.698;8.762;2022-10-16T08:41:00;16.50;94.30
10868;DHT22;62667;48.698;8.762;2022-10-16T08:43:56;16.50;93.90
10868;DHT22;62667;48.698;8.762;2022-10-16T08:46:53;16.70;93.40
10868;DHT22;62667;48.698;8.762;2022-10-16T08:49:29;16.90;90.20
10868;DHT22;62667;48.698;8.762;2022-10-16T08:51:58;17.10;89.80
10868;DHT22;62667;48.698;8.762;2022-10-16T08:54:29;17.30;89.30
10868;DHT22;62667;48.698;8.762;2022-10-16T08:57:09;17.30;87.40
10868;DHT22;62667;48.698;8.762;2022-10-16T08:59:40;17.30;88.00
10868;DHT22;62667;48.698;8.762;2022-10-16T09:02:24;17.60;87.90
10868;DHT22;62667;48.698;8.762;2022-10-16T09:05:08;17.70;86.90
10868;DHT22;62667;48.698;8.762;2022-10-16T09:07:57;18.00;86.10
10868;DHT22;62667;48.698;8.762;2022-10-16T09:10:38;17.90;86.20
10868;DHT22;62667;48.698;8.762;2022-10-16T09:13:19;17.90;84.40
10868;DHT22;62667;48.698;8.762;2022-10-16T09:15:58;17.80;84.80
10868;DHT22;62667;48.698;8.762;2022-10-16T09:21:14;17.70;83.90
10868;DHT22;62667;48.698;8.762;2022-10-16T09:23:44;17.60;84.10
10868;DHT22;62667;48.698;8.762;2022-10-16T09:26:13;17.50;84.70
10868;DHT22;62667;48.698;8.762;2022-10-16T09:28:41;17.60;86.30
10868;DHT22;62667;48.698;8.762;2022-10-16T09:31:16;17.40;85.30
10868;DHT22;62667;48.698;8.762;2022-10-16T09:33:47;17.40;87.70
10868;DHT22;62667;48.698;8.762;2022-10-16T09:36:18;17.60;87.60
10868;DHT22;62667;48.698;8.762;2022-10-16T09:38:46;17.90;87.50
10868;DHT22;62667;48.698;8.762;2022-10-16T09:41:19;17.90;86.80
10868;DHT22;62667;48.698;8.762;2022-10-16T09:43:53;18.10;86.80
10868;DHT22;62667;48.698;8.762;2022-10-16T09:46:26;18.40;81.10
10868;DHT22;62667;48.698;8.762;2022-10-16T09:48:56;18.50;79.50
10868;DHT22;62667;48.698;8.762;2022-10-16T09:51:25;18.70;79.00
10868;DHT22;62667;48.698;8.762;2022-10-16T09:53:58;18.60;79.00
10868;DHT22;62667;48.698;8.762;2022-10-16T09:58:57;19.00;80.50
10868;DHT22;62667;48.698;8.762;2022-10-16T10:01:30;19.00;80.30
10868;DHT22;62667;48.698;8.762;2022-10-16T10:04:04;19.20;78.90
10868;DHT22;62667;48.698;8.762;2022-10-16T10:06:33;19.10;78.90
10868;DHT22;62667;48.698;8.762;2022-10-16T10:09:16;19.60;78.80
10868;DHT22;62667;48.698;8.762;2022-10-16T10:11:48;19.50;77.70
10868;DHT22;62667;48.698;8.762;2022-10-16T10:14:25;19.40;77.40
10868;DHT22;62667;48.698;8.762;2022-10-16T10:17:19;19.50;77.80
10868;DHT22;62667;48.698;8.762;2022-10-16T10:19:50;19.50;76.80
10868;DHT22;62667;48.698;8.762;2022-10-16T10:22:31;19.70;76.30
10868;DHT22;62667;48.698;8.762;2022-10-16T10:28:24;20.20;73.80
10868;DHT22;62667;48.698;8.762;2022-10-16T10:31:10;20.10;72.00
10868;DHT22;62667;48.698;8.762;2022-10-16T10:33:48;20.20;73.50
10868;DHT22;62667;48.698;8.762;2022-10-16T10:36:28;20.60;72.70
10868;DHT22;62667;48.698;8.762;2022-10-16T10:39:01;20.90;72.00
10868;DHT22;62667;48.698;8.762;2022-10-16T10:42:00;21.10;68.80
10868;DHT22;62667;48.698;8.762;2022-10-16T10:47:42;20.70;70.10
10868;DHT22;62667;48.698;8.762;2022-10-16T10:50:24;21.00;69.10
10868;DHT22;62667;48.698;8.762;2022-10-16T10:53:01;21.10;67.20
10868;DHT22;62667;48.698;8.762;2022-10-16T10:55:42;21.10;68.20
10868;DHT22;62667;48.698;8.762;2022-10-16T10:58:33;21.30;65.60
10868;DHT22;62667;48.698;8.762;2022-10-16T11:01:12;21.40;65.00
10868;DHT22;62667;48.698;8.762;2022-10-16T11:03:53;21.60;64.90
10868;DHT22;62667;48.698;8.762;2022-10-16T11:06:34;21.80;64.40
10868;DHT22;62667;48.698;8.762;2022-10-16T11:09:12;21.60;63.20
10868;DHT22;62667;48.698;8.762;2022-10-16T11:11:44;21.40;63.40
10868;DHT22;62667;48.698;8.762;2022-10-16T11:14:19;21.30;64.30
10868;DHT22;62667;48.698;8.762;2022-10-16T11:16:54;21.50;63.90
10868;DHT22;62667;48.698;8.762;2022-10-16T11:19:34;21.60;63.50
10868;DHT22;62667;48.698;8.762;2022-10-16T11:22:11;21.90;60.90
10868;DHT22;62667;48.698;8.762;2022-10-16T11:24:47;21.80;60.90
10868;DHT22;62667;48.698;8.762;2022-10-16T11:27:21;21.70;60.60
10868;DHT22;62667;48.698;8.762;2022-10-16T11:29:57;21.90;60.40
10868;DHT22;62667;48.698;8.762;2022-10-16T11:32:31;21.60;59.80
10868;DHT22;62667;48.698;8.762;2022-10-16T11:35:08;21.80;60.50
10868;DHT22;62667;48.698;8.762;2022-10-16T11:37:44;22.10;61.30
10868;DHT22;62667;48.698;8.762;2022-10-16T11:40:22;21.90;60.20
10868;DHT22;62667;48.698;8.762;2022-10-16T11:42:54;22.00;60.20
10868;DHT22;62667;48.698;8.762;2022-10-16T11:45:33;22.00;59.90
10868;DHT22;62667;48.698;8.762;2022-10-16T11:48:14;22.30;61.70
10868;DHT22;62667;48.698;8.762;2022-10-16T11:50:50;22.50;58.20
10868;DHT22;62667;48.698;8.762;2022-10-16T11:53:26;22.70;56.00
10868;DHT22;62667;48.698;8.762;2022-10-16T11:58:33;23.00;51.20
10868;DHT22;62667;48.698;8.762;2022-10-16T12:01:17;23.30;51.60
10868;DHT22;62667;48.698;8.762;2022-10-16T12:04:10;23.50;49.50
10868;DHT22;62667;48.698;8.762;2022-10-16T12:06:44;23.60;50.40
10868;DHT22;62667;48.698;8.762;2022-10-16T12:09:22;23.20;48.10
10868;DHT22;62667;48.698;8.762;2022-10-16T12:11:52;23.00;50.50
10868;DHT22;62667;48.698;8.762;2022-10-16T12:14:38;23.30;49.30
10868;DHT22;62667;48.698;8.762;2022-10-16T12:17:25;23.80;50.40
10868;DHT22;62667;48.698;8.762;2022-10-16T12:20:00;24.20;46.20
10868;DHT22;62667;48.698;8.762;2022-10-16T12:22:42;24.10;46.50
10868;DHT22;62667;48.698;8.762;2022-10-16T12:28:00;23.70;42.20
10868;DHT22;62667;48.698;8.762;2022-10-16T12:30:33;23.00;45.40
10868;DHT22;62667;48.698;8.762;2022-10-16T12:33:03;23.10;45.50
10868;DHT22;62667;48.698;8.762;2022-10-16T12:35:33;23.00;46.60
10868;DHT22;62667;48.698;8.762;2022-10-16T12:40:45;22.70;45.80
10868;DHT22;62667;48.698;8.762;2022-10-16T12:46:06;23.50;43.60
10868;DHT22;62667;48.698;8.762;2022-10-16T12:48:48;24.10;42.90
10868;DHT22;62667;48.698;8.762;2022-10-16T12:51:24;24.30;40.90
10868;DHT22;62667;48.698;8.762;2022-10-16T12:54:00;24.10;41.60
10868;DHT22;62667;48.698;8.762;2022-10-16T12:56:36;24.00;41.00
10868;DHT22;62667;48.698;8.762;2022-10-16T12:59:20;24.10;42.00
10868;DHT22;62667;48.698;8.762;2022-10-16T13:05:12;25.00;40.50
10868;DHT22;62667;48.698;8.762;2022-10-16T13:07:59;25.60;39.00
10868;DHT22;62667;48.698;8.762;2022-10-16T13:10:44;25.70;37.10
10868;DHT22;62667;48.698;8.762;2022-10-16T13:13:39;25.50;37.70
10868;DHT22;62667;48.698;8.762;2022-10-16T13:16:34;25.00;39.40
10868;DHT22;62667;48.698;8.762;2022-10-16T13:19:16;24.90;40.00
10868;DHT22;62667;48.698;8.762;2022-10-16T13:21:53;24.90;41.00
10868;DHT22;62667;48.698;8.762;2022-10-16T13:24:42;24.70;41.70
10868;DHT22;62667;48.698;8.762;2022-10-16T13:27:28;24.80;42.30
10868;DHT22;62667;48.698;8.762;2022-10-16T13:30:11;24.60;40.90
10868;DHT22;62667;48.698;8.762;2022-10-16T13:32:45;24.30;42.50
10868;DHT22;62667;48.698;8.762;2022-10-16T13:35:21;24.30;43.20
10868;DHT22;62667;48.698;8.762;2022-10-16T13:37:50;24.20;42.20
10868;DHT22;62667;48.698;8.762;2022-10-16T13:40:22;24.20;42.90
10868;DHT22;62667;48.698;8.762;2022-10-16T13:42:50;24.20;42.90
10868;DHT22;62667;48.698;8.762;2022-10-16T13:45:20;24.00;43.30
10868;DHT22;62667;48.698;8.762;2022-10-16T13:47:47;24.10;44.40
10868;DHT22;62667;48.698;8.762;2022-10-16T13:50:16;24.10;44.40
10868;DHT22;62667;48.698;8.762;2022-10-16T13:52:44;24.10;43.40
10868;DHT22;62667;48.698;8.762;2022-10-16T13:55:11;24.00;42.00
10868;DHT22;62667;48.698;8.762;2022-10-16T13:57:39;23.90;42.80
10868;DHT22;62667;48.698;8.762;2022-10-16T14:00:19;24.00;43.20
10868;DHT22;62667;48.698;8.762;2022-10-16T14:02:53;24.40;43.20
10868;DHT22;62667;48.698;8.762;2022-10-16T14:05:24;24.80;42.40
10868;DHT22;62667;48.698;8.762;2022-10-16T14:15:25;28.10;34.90
10868;DHT22;62667;48.698;8.762;2022-10-16T14:17:53;28.50;33.70
10868;DHT22;62667;48.698;8.762;2022-10-16T14:20:26;28.10;34.00
10868;DHT22;62667;48.698;8.762;2022-10-16T14:23:02;27.90;34.10
10868;DHT22;62667;48.698;8.762;2022-10-16T14:33:03;33.10;24.90
10868;DHT22;62667;48.698;8.762;2022-10-16T14:35:33;33.80;23.30
10868;DHT22;62667;48.698;8.762;2022-10-16T14:38:01;33.10;23.60
10868;DHT22;62667;48.698;8.762;2022-10-16T14:40:31;32.20;24.70
10868;DHT22;62667;48.698;8.762;2022-10-16T14:43:02;31.90;24.90
10868;DHT22;62667;48.698;8.762;2022-10-16T14:48:02;33.90;22.90
10868;DHT22;62667;48.698;8.762;2022-10-16T14:50:32;35.20;19.80
10868;DHT22;62667;48.698;8.762;2022-10-16T14:52:59;33.70;19.60
10868;DHT22;62667;48.698;8.762;2022-10-16T14:57:52;35.20;22.70
10868;DHT22;62667;48.698;8.762;2022-10-16T15:00:21;36.10;21.80
10868;DHT22;62667;48.698;8.762;2022-10-16T15:05:19;37.40;17.20
10868;DHT22;62667;48.698;8.762;2022-10-16T15:07:48;37.20;17.50
10868;DHT22;62667;48.698;8.762;2022-10-16T15:10:15;36.50;17.40
10868;DHT22;62667;48.698;8.762;2022-10-16T15:12:43;36.70;18.00
10868;DHT22;62667;48.698;8.762;2022-10-16T15:15:26;37.10;16.90
10868;DHT22;62667;48.698;8.762;2022-10-16T15:17:58;37.70;16.40
10868;DHT22;62667;48.698;8.762;2022-10-16T15:20:27;36.90;16.50
10868;DHT22;62667;48.698;8.762;2022-10-16T15:22:56;35.10;18.60
10868;DHT22;62667;48.698;8.762;2022-10-16T15:28:00;33.80;19.70
10868;DHT22;62667;48.698;8.762;2022-10-16T15:32:55;31.20;24.60
10868;DHT22;62667;48.698;8.762;2022-10-16T15:40:18;28.50;31.20
10868;DHT22;62667;48.698;8.762;2022-10-16T15:42:46;28.60;33.10
10868;DHT22;62667;48.698;8.762;2022-10-16T15:45:14;29.20;32.90
10868;DHT22;62667;48.698;8.762;2022-10-16T15:47:41;29.40;31.50
10868;DHT22;62667;48.698;8.762;2022-10-16T15:50:10;28.50;32.60
10868;DHT22;62667;48.698;8.762;2022-10-16T15:55:07;26.40;37.60
10868;DHT22;62667;48.698;8.762;2022-10-16T16:00:06;25.70;58.60
10868;DHT22;62667;48.698;8.762;2022-10-16T16:02:33;25.90;41.30
10868;DHT22;62667;48.698;8.762;2022-10-16T16:05:00;26.20;41.80
10868;DHT22;62667;48.698;8.762;2022-10-16T16:07:27;26.50;39.50
10868;DHT22;62667;48.698;8.762;2022-10-16T16:09:55;26.40;39.00
10868;DHT22;62667;48.698;8.762;2022-10-16T16:12:21;26.30;39.30
10868;DHT22;62667;48.698;8.762;2022-10-16T16:14:48;26.10;39.60
10868;DHT22;62667;48.698;8.762;2022-10-16T16:17:15;26.30;39.60
10868;DHT22;62667;48.698;8.762;2022-10-16T16:31:59;22.90;48.50
10868;DHT22;62667;48.698;8.762;2022-10-16T16:34:28;22.40;51.00
10868;DHT22;62667;48.698;8.762;2022-10-16T16:36:56;22.00;52.70
10868;DHT22;62667;48.698;8.762;2022-10-16T16:39:23;21.60;53.90
10868;DHT22;62667;48.698;8.762;2022-10-16T16:41:50;21.30;55.40
10868;DHT22;62667;48.698;8.762;2022-10-16T16:44:17;21.00;56.60
10868;DHT22;62667;48.698;8.762;2022-10-16T16:46:46;20.70;58.40
10868;DHT22;62667;48.698;8.762;2022-10-16T16:49:13;20.60;59.20
10868;DHT22;62667;48.698;8.762;2022-10-16T16:51:40;20.50;60.30
10868;DHT22;62667;48.698;8.762;2022-10-16T16:54:08;20.40;61.20
10868;DHT22;62667;48.698;8.762;2022-10-16T16:56:39;20.20;62.30
10868;DHT22;62667;48.698;8.762;2022-10-16T16:59:12;20.10;64.50
10868;DHT22;62667;48.698;8.762;2022-10-16T17:01:43;20.00;67.80
10868;DHT22;62667;48.698;8.762;2022-10-16T17:04:10;19.90;69.60
10868;DHT22;62667;48.698;8.762;2022-10-16T17:06:37;19.80;71.60
10868;DHT22;62667;48.698;8.762;2022-10-16T17:09:05;19.60;73.00
10868;DHT22;62667;48.698;8.762;2022-10-16T17:11:34;19.50;76.30
10868;DHT22;62667;48.698;8.762;2022-10-16T17:14:02;19.40;80.00
10868;DHT22;62667;48.698;8.762;2022-10-16T17:16:30;19.30;82.00